Time;durP1;ratioP1;P1;durP2;ratioP2;P2;SDS_P1;SDS_P2;PMS_P1;PMS_P2;Temp;Humidity;BMP_temperature;BMP_pressure;BME280_temperature;BME280_humidity;BME280_pressure;Samples;Min_cycle;Max_cycle;Signal;HPM_P1;HPM_P2
2022/08/28 00:00:00;;;;;;;0.3;0.3;;;;;;;18.2;100.0;101640;;;;
2022/08/28 00:01:00;;;;;;;0.3;0.3;;;;;;;18.2;100.0;101640;;;;
2022/08/28 00:02:00;;;;;;;0.3;0.3;;;;;;;18.1;100.0;101640;;;;
2022/08/28 00:03:00;;;;;;;0.3;0.3;;;;;;;18.1;100.0;101640;;;;
2022/08/28 00:04:00;;;;;;;0.3;0.3;;;;;;;18.2;100.0;101640;;;;
2022/08/28 00:05:00;;;;;;;0.3;0.3;;;;;;;18.2;100.0;101640;;;;
2022/08/28 00:06:01;;;;;;;0.3;0.3;;;;;;;18.3;100.0;101640;;;;
2022/08/28 00:07:00;;;;;;;0.3;0.3;;;;;;;18.3;100.0;101640;;;;
2022/08/28 00:08:00;;;;;;;0.3;0.3;;;;;;;18.1;100.0;101640;;;;
2022/08/28 00:09:00;;;;;;;0.3;0.3;;;;;;;18.1;100.0;101640;;;;
2022/08/28 00:10:00;;;;;;;0.3;0.3;;;;;;;18.1;100.0;101640;;;;
2022/08/28 00:11:00;;;;;;;0.3;0.3;;;;;;;18.1;100.0;101640;;;;
2022/08/28 00:12:00;;;;;;;0.3;0.3;;;;;;;17.9;100.0;101650;;;;
2022/08/28 00:13:00;;;;;;;0.3;0.3;;;;;;;17.9;100.0;101650;;;;
2022/08/28 00:14:01;;;;;;;0.3;0.3;;;;;;;17.9;100.0;101650;;;;
2022/08/28 00:15:00;;;;;;;0.3;0.3;;;;;;;17.9;100.0;101650;;;;
2022/08/28 00:16:00;;;;;;;0.3;0.3;;;;;;;18.1;100.0;101650;;;;
2022/08/28 00:17:00;;;;;;;0.3;0.3;;;;;;;18.1;100.0;101650;;;;
2022/08/28 00:18:02;;;;;;;0.3;0.3;;;;;;;17.9;100.0;101650;;;;
2022/08/28 00:19:00;;;;;;;0.3;0.3;;;;;;;17.9;100.0;101650;;;;
2022/08/28 00:20:00;;;;;;;0.3;0.3;;;;;;;17.9;100.0;101650;;;;
2022/08/28 00:21:00;;;;;;;0.3;0.3;;;;;;;17.9;100.0;101650;;;;
2022/08/28 00:22:00;;;;;;;0.3;0.3;;;;;;;18.0;100.0;101650;;;;
2022/08/28 00:23:00;;;;;;;0.3;0.3;;;;;;;18.0;100.0;101650;;;;
2022/08/28 00:24:00;;;;;;;0.3;0.3;;;;;;;18.0;100.0;101650;;;;
2022/08/28 00:25:00;;;;;;;0.3;0.3;;;;;;;18.0;100.0;101650;;;;
2022/08/28 00:26:00;;;;;;;0.3;0.3;;;;;;;17.9;100.0;101650;;;;
2022/08/28 00:28:09;;;;;;;0.3;0.3;;;;;;;18.0;100.0;101650;;;;
2022/08/28 00:29:00;;;;;;;0.6;0.6;;;;;;;18.0;100.0;101650;;;;
2022/08/28 00:30:00;;;;;;;0.6;0.6;;;;;;;17.9;100.0;101650;;;;
2022/08/28 00:31:00;;;;;;;0.6;0.6;;;;;;;17.9;100.0;101650;;;;
2022/08/28 00:32:00;;;;;;;0.6;0.6;;;;;;;17.8;100.0;101650;;;;
2022/08/28 00:33:03;;;;;;;0.6;0.6;;;;;;;17.8;100.0;101650;;;;
2022/08/28 00:34:02;;;;;;;0.6;0.6;;;;;;;17.9;100.0;101650;;;;
2022/08/28 00:35:01;;;;;;;0.6;0.6;;;;;;;17.9;100.0;101650;;;;
2022/08/28 00:36:01;;;;;;;0.6;0.6;;;;;;;17.6;100.0;101650;;;;
2022/08/28 00:37:00;;;;;;;0.6;0.6;;;;;;;17.6;100.0;101650;;;;
2022/08/28 00:38:00;;;;;;;0.6;0.6;;;;;;;17.6;100.0;101650;;;;
2022/08/28 00:39:00;;;;;;;0.6;0.6;;;;;;;17.6;100.0;101650;;;;
2022/08/28 00:40:02;;;;;;;0.6;0.6;;;;;;;17.6;100.0;101640;;;;
2022/08/28 00:41:03;;;;;;;0.6;0.6;;;;;;;17.6;100.0;101640;;;;
2022/08/28 00:42:00;;;;;;;0.6;0.6;;;;;;;17.6;100.0;101640;;;;
2022/08/28 00:43:02;;;;;;;0.6;0.6;;;;;;;17.6;100.0;101640;;;;
2022/08/28 00:44:10;;;;;;;0.6;0.6;;;;;;;17.5;100.0;101650;;;;
2022/08/28 00:45:00;;;;;;;0.6;0.6;;;;;;;17.5;100.0;101650;;;;
2022/08/28 00:46:00;;;;;;;0.6;0.6;;;;;;;17.5;100.0;101650;;;;
2022/08/28 00:47:00;;;;;;;0.6;0.6;;;;;;;17.5;100.0;101650;;;;
2022/08/28 00:48:00;;;;;;;0.6;0.6;;;;;;;17.5;100.0;101650;;;;
2022/08/28 00:49:00;;;;;;;0.4;0.4;;;;;;;17.5;100.0;101650;;;;
2022/08/28 00:50:01;;;;;;;0.4;0.4;;;;;;;17.5;100.0;101650;;;;
2022/08/28 00:53:00;;;;;;;0.4;0.4;;;;;;;17.5;100.0;101650;;;;
2022/08/28 00:54:05;;;;;;;0.4;0.4;;;;;;;17.4;100.0;101650;;;;
2022/08/28 00:55:04;;;;;;;0.4;0.4;;;;;;;17.4;100.0;101650;;;;
2022/08/28 00:56:04;;;;;;;0.4;0.4;;;;;;;17.6;100.0;101650;;;;
2022/08/28 00:57:02;;;;;;;0.4;0.4;;;;;;;17.6;100.0;101650;;;;
2022/08/28 00:58:00;;;;;;;0.4;0.4;;;;;;;17.5;100.0;101650;;;;
2022/08/28 00:59:02;;;;;;;0.4;0.4;;;;;;;17.5;100.0;101650;;;;
2022/08/28 01:00:00;;;;;;;0.4;0.4;;;;;;;17.5;100.0;101650;;;;
2022/08/28 01:01:01;;;;;;;0.4;0.4;;;;;;;17.5;100.0;101650;;;;
2022/08/28 01:02:00;;;;;;;0.4;0.4;;;;;;;17.5;100.0;101650;;;;
2022/08/28 01:03:00;;;;;;;0.4;0.4;;;;;;;17.5;100.0;101650;;;;
2022/08/28 01:04:01;;;;;;;0.4;0.4;;;;;;;17.5;100.0;101650;;;;
2022/08/28 01:05:00;;;;;;;0.4;0.4;;;;;;;17.5;100.0;101650;;;;
2022/08/28 01:06:01;;;;;;;0.4;0.4;;;;;;;17.5;100.0;101650;;;;
2022/08/28 01:07:01;;;;;;;0.4;0.4;;;;;;;17.5;100.0;101650;;;;
2022/08/28 01:08:00;;;;;;;0.4;0.4;;;;;;;17.5;100.0;101650;;;;
2022/08/28 01:09:00;;;;;;;0.4;0.4;;;;;;;17.5;100.0;101650;;;;
2022/08/28 01:10:00;;;;;;;0.4;0.4;;;;;;;17.6;100.0;101650;;;;
2022/08/28 01:11:02;;;;;;;0.4;0.4;;;;;;;17.6;100.0;101650;;;;
2022/08/28 01:12:05;;;;;;;0.4;0.4;;;;;;;17.7;100.0;101650;;;;
2022/08/28 01:13:00;;;;;;;0.4;0.4;;;;;;;17.7;100.0;101650;;;;
2022/08/28 01:14:02;;;;;;;0.4;0.4;;;;;;;17.4;100.0;101660;;;;
2022/08/28 01:15:01;;;;;;;0.4;0.4;;;;;;;17.4;100.0;101660;;;;
2022/08/28 01:16:02;;;;;;;0.4;0.4;;;;;;;17.2;100.0;101660;;;;
2022/08/28 01:17:01;;;;;;;0.4;0.4;;;;;;;17.2;100.0;101660;;;;
2022/08/28 01:18:08;;;;;;;0.4;0.4;;;;;;;17.4;100.0;101660;;;;
2022/08/28 01:19:01;;;;;;;0.4;0.4;;;;;;;17.4;100.0;101660;;;;
2022/08/28 01:20:04;;;;;;;0.4;0.4;;;;;;;17.5;100.0;101660;;;;
2022/08/28 01:21:09;;;;;;;0.4;0.4;;;;;;;17.5;100.0;101660;;;;
2022/08/28 01:22:07;;;;;;;0.4;0.4;;;;;;;17.4;100.0;101660;;;;
2022/08/28 01:23:10;;;;;;;0.4;0.4;;;;;;;17.2;100.0;101660;;;;
2022/08/28 01:24:03;;;;;;;0.4;0.4;;;;;;;17.2;100.0;101660;;;;
2022/08/28 01:25:01;;;;;;;0.4;0.4;;;;;;;17.2;100.0;101660;;;;
2022/08/28 01:26:01;;;;;;;0.4;0.4;;;;;;;17.3;100.0;101660;;;;
2022/08/28 01:27:00;;;;;;;0.4;0.4;;;;;;;17.3;100.0;101660;;;;
2022/08/28 01:28:02;;;;;;;0.4;0.4;;;;;;;17.2;100.0;101660;;;;
2022/08/28 01:29:00;;;;;;;0.4;0.4;;;;;;;17.2;100.0;101660;;;;
2022/08/28 01:30:00;;;;;;;0.4;0.4;;;;;;;17.3;100.0;101660;;;;
2022/08/28 01:31:00;;;;;;;0.4;0.4;;;;;;;17.3;100.0;101660;;;;
2022/08/28 01:32:00;;;;;;;0.4;0.4;;;;;;;17.3;100.0;101660;;;;
2022/08/28 01:33:00;;;;;;;0.4;0.4;;;;;;;17.3;100.0;101660;;;;
2022/08/28 01:34:00;;;;;;;0.4;0.4;;;;;;;17.2;100.0;101660;;;;
2022/08/28 01:35:00;;;;;;;0.4;0.4;;;;;;;17.2;100.0;101660;;;;
2022/08/28 01:36:00;;;;;;;0.4;0.4;;;;;;;17.0;100.0;101670;;;;
2022/08/28 01:37:03;;;;;;;0.4;0.4;;;;;;;17.0;100.0;101670;;;;
2022/08/28 01:38:00;;;;;;;0.4;0.4;;;;;;;17.0;100.0;101670;;;;
2022/08/28 01:39:03;;;;;;;0.4;0.4;;;;;;;17.0;100.0;101670;;;;
2022/08/28 01:40:00;;;;;;;0.4;0.4;;;;;;;16.8;100.0;101660;;;;
2022/08/28 01:41:00;;;;;;;0.4;0.4;;;;;;;16.8;100.0;101660;;;;
2022/08/28 01:42:01;;;;;;;0.4;0.4;;;;;;;16.7;100.0;101660;;;;
2022/08/28 01:43:09;;;;;;;0.4;0.4;;;;;;;16.7;100.0;101660;;;;
2022/08/28 01:44:00;;;;;;;0.4;0.4;;;;;;;16.8;100.0;101660;;;;
2022/08/28 01:45:00;;;;;;;0.4;0.4;;;;;;;16.8;100.0;101660;;;;
2022/08/28 01:46:01;;;;;;;0.4;0.4;;;;;;;16.7;100.0;101660;;;;
2022/08/28 01:47:00;;;;;;;0.4;0.4;;;;;;;16.7;100.0;101660;;;;
2022/08/28 01:48:00;;;;;;;0.4;0.4;;;;;;;16.5;100.0;101660;;;;
2022/08/28 01:49:00;;;;;;;0.5;0.5;;;;;;;16.5;100.0;101660;;;;
2022/08/28 01:50:00;;;;;;;0.5;0.5;;;;;;;16.8;100.0;101660;;;;
2022/08/28 01:51:00;;;;;;;0.5;0.5;;;;;;;16.8;100.0;101660;;;;
2022/08/28 01:52:03;;;;;;;0.5;0.5;;;;;;;16.7;100.0;101660;;;;
2022/08/28 01:53:00;;;;;;;0.5;0.5;;;;;;;16.7;100.0;101660;;;;
2022/08/28 01:54:00;;;;;;;0.5;0.5;;;;;;;16.7;100.0;101660;;;;
2022/08/28 01:55:00;;;;;;;0.5;0.5;;;;;;;16.7;100.0;101660;;;;
2022/08/28 01:56:02;;;;;;;0.5;0.5;;;;;;;16.7;100.0;101660;;;;
2022/08/28 01:57:00;;;;;;;0.5;0.5;;;;;;;16.7;100.0;101660;;;;
2022/08/28 01:58:01;;;;;;;0.5;0.5;;;;;;;16.8;100.0;101660;;;;
2022/08/28 01:59:01;;;;;;;0.5;0.5;;;;;;;16.8;100.0;101660;;;;
2022/08/28 02:00:00;;;;;;;0.5;0.5;;;;;;;16.7;100.0;101670;;;;
2022/08/28 02:01:00;;;;;;;0.5;0.5;;;;;;;16.7;100.0;101670;;;;
2022/08/28 02:02:00;;;;;;;0.5;0.5;;;;;;;16.6;100.0;101670;;;;
2022/08/28 02:03:00;;;;;;;0.5;0.5;;;;;;;16.6;100.0;101670;;;;
2022/08/28 02:04:03;;;;;;;0.5;0.5;;;;;;;16.8;100.0;101660;;;;
2022/08/28 02:05:00;;;;;;;0.5;0.5;;;;;;;16.8;100.0;101660;;;;
2022/08/28 02:06:00;;;;;;;0.5;0.5;;;;;;;16.8;100.0;101670;;;;
2022/08/28 02:07:00;;;;;;;0.5;0.5;;;;;;;16.8;100.0;101670;;;;
2022/08/28 02:08:01;;;;;;;0.6;0.6;;;;;;;16.6;100.0;101670;;;;
2022/08/28 02:09:00;;;;;;;0.6;0.6;;;;;;;16.6;100.0;101670;;;;
2022/08/28 02:10:00;;;;;;;0.6;0.6;;;;;;;16.7;100.0;101670;;;;
2022/08/28 02:11:00;;;;;;;0.6;0.6;;;;;;;16.7;100.0;101670;;;;
2022/08/28 02:12:00;;;;;;;0.6;0.6;;;;;;;16.7;100.0;101670;;;;
2022/08/28 02:13:00;;;;;;;0.6;0.6;;;;;;;16.7;100.0;101670;;;;
2022/08/28 02:14:00;;;;;;;0.6;0.6;;;;;;;16.6;100.0;101670;;;;
2022/08/28 02:15:00;;;;;;;0.6;0.6;;;;;;;16.6;100.0;101670;;;;
2022/08/28 02:16:00;;;;;;;0.6;0.6;;;;;;;16.6;100.0;101670;;;;
2022/08/28 02:17:00;;;;;;;0.6;0.6;;;;;;;16.6;100.0;101670;;;;
2022/08/28 02:18:00;;;;;;;0.6;0.6;;;;;;;16.6;100.0;101680;;;;
2022/08/28 02:19:00;;;;;;;0.6;0.6;;;;;;;16.6;100.0;101680;;;;
2022/08/28 02:20:00;;;;;;;0.6;0.6;;;;;;;16.6;100.0;101680;;;;
2022/08/28 02:21:00;;;;;;;0.6;0.6;;;;;;;16.6;100.0;101680;;;;
2022/08/28 02:22:00;;;;;;;0.6;0.6;;;;;;;16.7;100.0;101680;;;;
2022/08/28 02:23:00;;;;;;;0.6;0.6;;;;;;;16.7;100.0;101680;;;;
2022/08/28 02:24:00;;;;;;;0.6;0.6;;;;;;;16.7;100.0;101680;;;;
2022/08/28 02:25:00;;;;;;;0.6;0.6;;;;;;;16.7;100.0;101680;;;;
2022/08/28 02:26:00;;;;;;;0.6;0.6;;;;;;;16.4;100.0;101680;;;;
2022/08/28 02:27:01;;;;;;;0.6;0.6;;;;;;;16.4;100.0;101680;;;;
2022/08/28 02:28:00;;;;;;;0.4;0.4;;;;;;;16.4;100.0;101680;;;;
2022/08/28 02:29:00;;;;;;;0.4;0.4;;;;;;;16.4;100.0;101680;;;;
2022/08/28 02:30:00;;;;;;;0.4;0.4;;;;;;;16.5;100.0;101690;;;;
2022/08/28 02:31:00;;;;;;;0.4;0.4;;;;;;;16.5;100.0;101690;;;;
2022/08/28 02:32:00;;;;;;;0.4;0.4;;;;;;;16.5;100.0;101680;;;;
2022/08/28 02:33:00;;;;;;;0.4;0.4;;;;;;;16.5;100.0;101680;;;;
2022/08/28 02:34:00;;;;;;;0.4;0.4;;;;;;;16.3;100.0;101690;;;;
2022/08/28 02:35:00;;;;;;;0.4;0.4;;;;;;;16.3;100.0;101690;;;;
2022/08/28 02:36:00;;;;;;;0.4;0.4;;;;;;;16.3;100.0;101690;;;;
2022/08/28 02:37:00;;;;;;;0.4;0.4;;;;;;;16.3;100.0;101690;;;;
2022/08/28 02:38:00;;;;;;;0.4;0.4;;;;;;;16.3;100.0;101690;;;;
2022/08/28 02:39:00;;;;;;;0.4;0.4;;;;;;;16.3;100.0;101690;;;;
2022/08/28 02:40:00;;;;;;;0.4;0.4;;;;;;;16.3;100.0;101690;;;;
2022/08/28 02:41:04;;;;;;;0.4;0.4;;;;;;;16.3;100.0;101690;;;;
2022/08/28 02:42:00;;;;;;;0.4;0.4;;;;;;;16.3;100.0;101690;;;;
2022/08/28 02:43:00;;;;;;;0.4;0.4;;;;;;;16.3;100.0;101690;;;;
2022/08/28 02:44:00;;;;;;;0.4;0.4;;;;;;;16.2;100.0;101690;;;;
2022/08/28 02:45:00;;;;;;;0.4;0.4;;;;;;;16.2;100.0;101690;;;;
2022/08/28 02:46:00;;;;;;;0.4;0.4;;;;;;;16.3;100.0;101690;;;;
2022/08/28 02:47:00;;;;;;;0.4;0.4;;;;;;;16.3;100.0;101690;;;;
2022/08/28 02:48:00;;;;;;;0.9;0.9;;;;;;;16.4;100.0;101690;;;;
2022/08/28 02:49:00;;;;;;;0.9;0.9;;;;;;;16.4;100.0;101690;;;;
2022/08/28 02:50:00;;;;;;;0.9;0.9;;;;;;;16.4;100.0;101690;;;;
2022/08/28 02:51:01;;;;;;;0.9;0.9;;;;;;;16.4;100.0;101690;;;;
2022/08/28 02:52:00;;;;;;;0.9;0.9;;;;;;;16.3;100.0;101680;;;;
2022/08/28 02:53:00;;;;;;;0.9;0.9;;;;;;;16.3;100.0;101680;;;;
2022/08/28 02:54:00;;;;;;;0.9;0.9;;;;;;;16.2;100.0;101690;;;;
2022/08/28 02:55:00;;;;;;;0.9;0.9;;;;;;;16.2;100.0;101690;;;;
2022/08/28 02:56:01;;;;;;;0.9;0.9;;;;;;;16.4;100.0;101690;;;;
2022/08/28 02:57:00;;;;;;;0.9;0.9;;;;;;;16.4;100.0;101690;;;;
2022/08/28 02:58:00;;;;;;;0.9;0.9;;;;;;;16.3;100.0;101690;;;;
2022/08/28 02:59:00;;;;;;;0.9;0.9;;;;;;;16.3;100.0;101690;;;;
2022/08/28 03:00:01;;;;;;;0.9;0.9;;;;;;;16.2;100.0;101690;;;;
2022/08/28 03:01:01;;;;;;;0.9;0.9;;;;;;;16.2;100.0;101690;;;;
2022/08/28 03:02:02;;;;;;;0.9;0.9;;;;;;;16.3;100.0;101690;;;;
2022/08/28 03:03:00;;;;;;;0.9;0.9;;;;;;;16.3;100.0;101690;;;;
2022/08/28 03:04:04;;;;;;;0.9;0.9;;;;;;;16.3;100.0;101690;;;;
2022/08/28 03:05:00;;;;;;;0.9;0.9;;;;;;;16.3;100.0;101690;;;;
2022/08/28 03:06:00;;;;;;;0.9;0.9;;;;;;;16.4;100.0;101690;;;;
2022/08/28 03:07:00;;;;;;;0.9;0.9;;;;;;;16.4;100.0;101690;;;;
2022/08/28 03:08:00;;;;;;;0.5;0.5;;;;;;;16.4;100.0;101690;;;;
2022/08/28 03:09:00;;;;;;;0.5;0.5;;;;;;;16.4;100.0;101690;;;;
2022/08/28 03:10:00;;;;;;;0.5;0.5;;;;;;;16.3;100.0;101690;;;;
2022/08/28 03:11:00;;;;;;;0.5;0.5;;;;;;;16.3;100.0;101690;;;;
2022/08/28 03:12:00;;;;;;;0.5;0.5;;;;;;;16.2;100.0;101690;;;;
2022/08/28 03:13:00;;;;;;;0.5;0.5;;;;;;;16.2;100.0;101690;;;;
2022/08/28 03:14:02;;;;;;;0.5;0.5;;;;;;;16.1;100.0;101690;;;;
2022/08/28 03:15:00;;;;;;;0.5;0.5;;;;;;;16.1;100.0;101690;;;;
2022/08/28 03:16:00;;;;;;;0.5;0.5;;;;;;;16.2;100.0;101680;;;;
2022/08/28 03:17:00;;;;;;;0.5;0.5;;;;;;;16.2;100.0;101680;;;;
2022/08/28 03:18:00;;;;;;;0.5;0.5;;;;;;;16.3;100.0;101690;;;;
2022/08/28 03:19:00;;;;;;;0.5;0.5;;;;;;;16.3;100.0;101690;;;;
2022/08/28 03:20:00;;;;;;;0.5;0.5;;;;;;;16.3;100.0;101690;;;;
2022/08/28 03:21:00;;;;;;;0.5;0.5;;;;;;;16.3;100.0;101690;;;;
2022/08/28 03:22:00;;;;;;;0.5;0.5;;;;;;;16.2;100.0;101690;;;;
2022/08/28 03:24:00;;;;;;;0.5;0.5;;;;;;;16.2;100.0;101690;;;;
2022/08/28 03:25:00;;;;;;;0.5;0.5;;;;;;;16.2;100.0;101690;;;;
2022/08/28 03:26:03;;;;;;;0.5;0.5;;;;;;;16.4;100.0;101690;;;;
2022/08/28 03:27:00;;;;;;;0.5;0.5;;;;;;;16.4;100.0;101690;;;;
2022/08/28 03:28:00;;;;;;;0.4;0.4;;;;;;;16.2;100.0;101690;;;;
2022/08/28 03:29:00;;;;;;;0.4;0.4;;;;;;;16.2;100.0;101690;;;;
2022/08/28 03:30:01;;;;;;;0.4;0.4;;;;;;;16.2;100.0;101700;;;;
2022/08/28 03:31:00;;;;;;;0.4;0.4;;;;;;;16.2;100.0;101700;;;;
2022/08/28 03:32:00;;;;;;;0.4;0.4;;;;;;;16.0;100.0;101700;;;;
2022/08/28 03:33:00;;;;;;;0.4;0.4;;;;;;;16.0;100.0;101700;;;;
2022/08/28 03:34:00;;;;;;;0.4;0.4;;;;;;;16.0;100.0;101700;;;;
2022/08/28 03:35:00;;;;;;;0.4;0.4;;;;;;;16.0;100.0;101700;;;;
2022/08/28 03:36:04;;;;;;;0.4;0.4;;;;;;;16.0;100.0;101700;;;;
2022/08/28 03:37:00;;;;;;;0.4;0.4;;;;;;;16.0;100.0;101700;;;;
2022/08/28 03:38:00;;;;;;;0.4;0.4;;;;;;;16.1;100.0;101700;;;;
2022/08/28 03:39:01;;;;;;;0.4;0.4;;;;;;;16.1;100.0;101700;;;;
2022/08/28 03:40:00;;;;;;;0.4;0.4;;;;;;;16.1;100.0;101700;;;;
2022/08/28 03:41:00;;;;;;;0.4;0.4;;;;;;;16.1;100.0;101700;;;;
2022/08/28 03:42:00;;;;;;;0.4;0.4;;;;;;;16.0;100.0;101700;;;;
2022/08/28 03:43:00;;;;;;;0.4;0.4;;;;;;;16.0;100.0;101700;;;;
2022/08/28 03:44:00;;;;;;;0.4;0.4;;;;;;;15.9;100.0;101700;;;;
2022/08/28 03:45:00;;;;;;;0.4;0.4;;;;;;;15.9;100.0;101700;;;;
2022/08/28 03:46:01;;;;;;;0.4;0.4;;;;;;;15.9;100.0;101710;;;;
2022/08/28 03:47:00;;;;;;;0.4;0.4;;;;;;;15.9;100.0;101710;;;;
2022/08/28 03:48:00;;;;;;;0.4;0.4;;;;;;;16.0;100.0;101710;;;;
2022/08/28 03:49:01;;;;;;;0.4;0.4;;;;;;;16.0;100.0;101710;;;;
2022/08/28 03:50:00;;;;;;;0.4;0.4;;;;;;;16.0;100.0;101710;;;;
2022/08/28 03:51:01;;;;;;;0.4;0.4;;;;;;;16.0;100.0;101710;;;;
2022/08/28 03:52:00;;;;;;;0.4;0.4;;;;;;;16.0;100.0;101720;;;;
2022/08/28 03:53:00;;;;;;;0.4;0.4;;;;;;;16.0;100.0;101720;;;;
2022/08/28 03:54:01;;;;;;;0.4;0.4;;;;;;;16.0;100.0;101720;;;;
2022/08/28 03:55:00;;;;;;;0.4;0.4;;;;;;;16.0;100.0;101720;;;;
2022/08/28 03:56:00;;;;;;;0.4;0.4;;;;;;;16.0;100.0;101720;;;;
2022/08/28 03:57:00;;;;;;;0.4;0.4;;;;;;;16.0;100.0;101720;;;;
2022/08/28 03:58:00;;;;;;;0.4;0.4;;;;;;;15.9;100.0;101720;;;;
2022/08/28 03:59:01;;;;;;;0.4;0.4;;;;;;;15.9;100.0;101720;;;;
2022/08/28 04:00:01;;;;;;;0.4;0.4;;;;;;;16.0;100.0;101720;;;;
2022/08/28 04:01:00;;;;;;;0.4;0.4;;;;;;;16.0;100.0;101720;;;;
2022/08/28 04:02:00;;;;;;;0.4;0.4;;;;;;;15.8;100.0;101720;;;;
2022/08/28 04:03:00;;;;;;;0.4;0.4;;;;;;;15.8;100.0;101720;;;;
2022/08/28 04:04:00;;;;;;;0.4;0.4;;;;;;;15.9;100.0;101720;;;;
2022/08/28 04:05:00;;;;;;;0.4;0.4;;;;;;;15.9;100.0;101720;;;;
2022/08/28 04:06:00;;;;;;;0.4;0.4;;;;;;;15.8;100.0;101720;;;;
2022/08/28 04:07:00;;;;;;;0.4;0.4;;;;;;;15.8;100.0;101720;;;;
2022/08/28 04:08:01;;;;;;;0.4;0.4;;;;;;;15.8;100.0;101720;;;;
2022/08/28 04:09:01;;;;;;;0.4;0.4;;;;;;;15.8;100.0;101720;;;;
2022/08/28 04:10:00;;;;;;;0.4;0.4;;;;;;;15.9;100.0;101730;;;;
2022/08/28 04:11:00;;;;;;;0.4;0.4;;;;;;;15.9;100.0;101730;;;;
2022/08/28 04:12:00;;;;;;;0.4;0.4;;;;;;;15.9;100.0;101720;;;;
2022/08/28 04:13:00;;;;;;;0.4;0.4;;;;;;;15.9;100.0;101720;;;;
2022/08/28 04:14:00;;;;;;;0.4;0.4;;;;;;;15.9;100.0;101730;;;;
2022/08/28 04:15:00;;;;;;;0.4;0.4;;;;;;;15.9;100.0;101730;;;;
2022/08/28 04:16:01;;;;;;;0.4;0.4;;;;;;;15.9;100.0;101720;;;;
2022/08/28 04:17:01;;;;;;;0.4;0.4;;;;;;;15.9;100.0;101720;;;;
2022/08/28 04:18:00;;;;;;;0.4;0.4;;;;;;;16.0;100.0;101720;;;;
2022/08/28 04:19:00;;;;;;;0.4;0.4;;;;;;;16.0;100.0;101720;;;;
2022/08/28 04:20:00;;;;;;;0.4;0.4;;;;;;;15.9;100.0;101730;;;;
2022/08/28 04:21:01;;;;;;;0.4;0.4;;;;;;;15.9;100.0;101730;;;;
2022/08/28 04:22:00;;;;;;;0.4;0.4;;;;;;;15.8;100.0;101720;;;;
2022/08/28 04:23:02;;;;;;;0.4;0.4;;;;;;;15.8;100.0;101720;;;;
2022/08/28 04:24:00;;;;;;;0.4;0.4;;;;;;;15.7;100.0;101720;;;;
2022/08/28 04:25:00;;;;;;;0.4;0.4;;;;;;;15.7;100.0;101720;;;;
2022/08/28 04:26:00;;;;;;;0.4;0.4;;;;;;;15.8;100.0;101730;;;;
2022/08/28 04:27:00;;;;;;;0.4;0.4;;;;;;;15.8;100.0;101730;;;;
2022/08/28 04:28:00;;;;;;;0.4;0.4;;;;;;;15.9;100.0;101720;;;;
2022/08/28 04:29:00;;;;;;;0.4;0.4;;;;;;;15.9;100.0;101720;;;;
2022/08/28 04:30:00;;;;;;;0.4;0.4;;;;;;;15.7;100.0;101730;;;;
2022/08/28 04:31:00;;;;;;;0.4;0.4;;;;;;;15.7;100.0;101730;;;;
2022/08/28 04:32:01;;;;;;;0.4;0.4;;;;;;;15.8;100.0;101730;;;;
2022/08/28 04:33:00;;;;;;;0.4;0.4;;;;;;;15.8;100.0;101730;;;;
2022/08/28 04:34:01;;;;;;;0.4;0.4;;;;;;;15.8;100.0;101730;;;;
2022/08/28 04:35:00;;;;;;;0.4;0.4;;;;;;;15.8;100.0;101730;;;;
2022/08/28 04:36:02;;;;;;;0.4;0.4;;;;;;;15.8;100.0;101730;;;;
2022/08/28 04:37:00;;;;;;;0.4;0.4;;;;;;;15.8;100.0;101730;;;;
2022/08/28 04:38:00;;;;;;;0.4;0.4;;;;;;;15.9;100.0;101730;;;;
2022/08/28 04:39:00;;;;;;;0.4;0.4;;;;;;;15.9;100.0;101730;;;;
2022/08/28 04:40:00;;;;;;;0.4;0.4;;;;;;;15.8;100.0;101730;;;;
2022/08/28 04:41:08;;;;;;;0.4;0.4;;;;;;;15.8;100.0;101730;;;;
2022/08/28 04:42:00;;;;;;;0.4;0.4;;;;;;;15.7;100.0;101740;;;;
2022/08/28 04:43:00;;;;;;;0.4;0.4;;;;;;;15.7;100.0;101740;;;;
2022/08/28 04:44:00;;;;;;;0.4;0.4;;;;;;;15.7;100.0;101730;;;;
2022/08/28 04:45:00;;;;;;;0.4;0.4;;;;;;;15.7;100.0;101730;;;;
2022/08/28 04:46:05;;;;;;;0.4;0.4;;;;;;;15.8;100.0;101740;;;;
2022/08/28 04:47:01;;;;;;;0.4;0.4;;;;;;;15.8;100.0;101740;;;;
2022/08/28 04:48:05;;;;;;;0.4;0.4;;;;;;;15.9;100.0;101740;;;;
2022/08/28 04:49:00;;;;;;;0.4;0.4;;;;;;;15.9;100.0;101740;;;;
2022/08/28 04:50:00;;;;;;;0.4;0.4;;;;;;;15.7;100.0;101750;;;;
2022/08/28 04:51:00;;;;;;;0.4;0.4;;;;;;;15.7;100.0;101750;;;;
2022/08/28 04:52:00;;;;;;;0.4;0.4;;;;;;;15.6;100.0;101750;;;;
2022/08/28 04:53:00;;;;;;;0.4;0.4;;;;;;;15.6;100.0;101750;;;;
2022/08/28 04:54:00;;;;;;;0.4;0.4;;;;;;;15.6;100.0;101750;;;;
2022/08/28 04:55:00;;;;;;;0.4;0.4;;;;;;;15.6;100.0;101750;;;;
2022/08/28 04:56:01;;;;;;;0.4;0.4;;;;;;;15.5;100.0;101750;;;;
2022/08/28 04:57:00;;;;;;;0.4;0.4;;;;;;;15.5;100.0;101750;;;;
2022/08/28 04:58:00;;;;;;;0.4;0.4;;;;;;;15.4;100.0;101750;;;;
2022/08/28 04:59:00;;;;;;;0.4;0.4;;;;;;;15.4;100.0;101750;;;;
2022/08/28 05:00:00;;;;;;;0.4;0.4;;;;;;;15.4;100.0;101750;;;;
2022/08/28 05:01:05;;;;;;;0.4;0.4;;;;;;;15.4;100.0;101750;;;;
2022/08/28 05:02:00;;;;;;;0.4;0.4;;;;;;;15.4;100.0;101750;;;;
2022/08/28 05:03:00;;;;;;;0.4;0.4;;;;;;;15.4;100.0;101750;;;;
2022/08/28 05:04:01;;;;;;;0.4;0.4;;;;;;;15.5;100.0;101750;;;;
2022/08/28 05:05:00;;;;;;;0.4;0.4;;;;;;;15.5;100.0;101750;;;;
2022/08/28 05:06:00;;;;;;;0.4;0.4;;;;;;;15.4;100.0;101750;;;;
2022/08/28 05:07:00;;;;;;;0.4;0.4;;;;;;;15.4;100.0;101750;;;;
2022/08/28 05:08:00;;;;;;;0.4;0.4;;;;;;;15.5;100.0;101750;;;;
2022/08/28 05:09:02;;;;;;;0.4;0.4;;;;;;;15.5;100.0;101750;;;;
2022/08/28 05:10:00;;;;;;;0.4;0.4;;;;;;;15.6;100.0;101750;;;;
2022/08/28 05:11:09;;;;;;;0.4;0.4;;;;;;;15.6;100.0;101750;;;;
2022/08/28 05:12:01;;;;;;;0.4;0.4;;;;;;;15.5;100.0;101760;;;;
2022/08/28 05:13:00;;;;;;;0.4;0.4;;;;;;;15.5;100.0;101760;;;;
2022/08/28 05:14:00;;;;;;;0.4;0.4;;;;;;;15.6;100.0;101760;;;;
2022/08/28 05:15:00;;;;;;;0.4;0.4;;;;;;;15.6;100.0;101760;;;;
2022/08/28 05:16:02;;;;;;;0.4;0.4;;;;;;;15.6;100.0;101760;;;;
2022/08/28 05:17:00;;;;;;;0.4;0.4;;;;;;;15.6;100.0;101760;;;;
2022/08/28 05:18:00;;;;;;;0.4;0.4;;;;;;;15.5;100.0;101760;;;;
2022/08/28 05:19:00;;;;;;;0.4;0.4;;;;;;;15.5;100.0;101760;;;;
2022/08/28 05:20:01;;;;;;;0.4;0.4;;;;;;;15.5;100.0;101760;;;;
2022/08/28 05:21:00;;;;;;;0.4;0.4;;;;;;;15.5;100.0;101760;;;;
2022/08/28 05:22:00;;;;;;;0.4;0.4;;;;;;;15.4;100.0;101760;;;;
2022/08/28 05:23:00;;;;;;;0.4;0.4;;;;;;;15.4;100.0;101760;;;;
2022/08/28 05:24:00;;;;;;;0.4;0.4;;;;;;;15.4;100.0;101760;;;;
2022/08/28 05:25:00;;;;;;;0.4;0.4;;;;;;;15.4;100.0;101760;;;;
2022/08/28 05:26:00;;;;;;;0.4;0.4;;;;;;;15.3;100.0;101760;;;;
2022/08/28 05:27:00;;;;;;;0.4;0.4;;;;;;;15.3;100.0;101760;;;;
2022/08/28 05:28:00;;;;;;;0.4;0.4;;;;;;;15.4;100.0;101770;;;;
2022/08/28 05:29:00;;;;;;;0.4;0.4;;;;;;;15.4;100.0;101770;;;;
2022/08/28 05:30:02;;;;;;;0.4;0.4;;;;;;;15.3;100.0;101770;;;;
2022/08/28 05:31:08;;;;;;;0.4;0.4;;;;;;;15.3;100.0;101770;;;;
2022/08/28 05:32:00;;;;;;;0.4;0.4;;;;;;;15.3;100.0;101770;;;;
2022/08/28 05:33:00;;;;;;;0.4;0.4;;;;;;;15.3;100.0;101770;;;;
2022/08/28 05:34:00;;;;;;;0.4;0.4;;;;;;;15.2;100.0;101770;;;;
2022/08/28 05:35:00;;;;;;;0.4;0.4;;;;;;;15.2;100.0;101770;;;;
2022/08/28 05:36:03;;;;;;;0.4;0.4;;;;;;;15.2;100.0;101780;;;;
2022/08/28 05:37:00;;;;;;;0.4;0.4;;;;;;;15.2;100.0;101780;;;;
2022/08/28 05:38:00;;;;;;;0.4;0.4;;;;;;;15.2;100.0;101780;;;;
2022/08/28 05:39:01;;;;;;;0.4;0.4;;;;;;;15.2;100.0;101780;;;;
2022/08/28 05:40:00;;;;;;;0.4;0.4;;;;;;;15.3;100.0;101780;;;;
2022/08/28 05:41:02;;;;;;;0.4;0.4;;;;;;;15.3;100.0;101780;;;;
2022/08/28 05:42:00;;;;;;;0.4;0.4;;;;;;;15.3;100.0;101780;;;;
2022/08/28 05:43:00;;;;;;;0.4;0.4;;;;;;;15.3;100.0;101780;;;;
2022/08/28 05:44:01;;;;;;;0.4;0.4;;;;;;;15.4;100.0;101780;;;;
2022/08/28 05:45:00;;;;;;;0.4;0.4;;;;;;;15.4;100.0;101780;;;;
2022/08/28 05:46:01;;;;;;;0.4;0.4;;;;;;;15.3;100.0;101780;;;;
2022/08/28 05:47:00;;;;;;;0.4;0.4;;;;;;;15.3;100.0;101780;;;;
2022/08/28 05:48:00;;;;;;;0.4;0.4;;;;;;;15.4;100.0;101780;;;;
2022/08/28 05:49:00;;;;;;;0.4;0.4;;;;;;;15.4;100.0;101780;;;;
2022/08/28 05:50:00;;;;;;;0.4;0.4;;;;;;;15.4;100.0;101780;;;;
2022/08/28 05:51:05;;;;;;;0.4;0.4;;;;;;;15.4;100.0;101780;;;;
2022/08/28 05:52:00;;;;;;;0.4;0.4;;;;;;;15.3;100.0;101790;;;;
2022/08/28 05:53:00;;;;;;;0.4;0.4;;;;;;;15.3;100.0;101790;;;;
2022/08/28 05:54:00;;;;;;;0.4;0.4;;;;;;;15.2;100.0;101790;;;;
2022/08/28 05:55:00;;;;;;;0.4;0.4;;;;;;;15.2;100.0;101790;;;;
2022/08/28 05:56:02;;;;;;;0.4;0.4;;;;;;;15.3;100.0;101790;;;;
2022/08/28 05:57:01;;;;;;;0.4;0.4;;;;;;;15.3;100.0;101790;;;;
2022/08/28 05:58:27;;;;;;;0.4;0.4;;;;;;;15.3;100.0;101790;;;;
2022/08/28 05:59:00;;;;;;;0.4;0.4;;;;;;;15.3;100.0;101790;;;;
2022/08/28 06:00:01;;;;;;;0.4;0.4;;;;;;;15.3;100.0;101790;;;;
2022/08/28 06:01:09;;;;;;;0.4;0.4;;;;;;;15.3;100.0;101790;;;;
2022/08/28 06:02:04;;;;;;;0.4;0.4;;;;;;;15.4;100.0;101780;;;;
2022/08/28 06:03:00;;;;;;;0.4;0.4;;;;;;;15.4;100.0;101780;;;;
2022/08/28 06:04:01;;;;;;;0.4;0.4;;;;;;;15.4;100.0;101790;;;;
2022/08/28 06:05:00;;;;;;;0.4;0.4;;;;;;;15.4;100.0;101790;;;;
2022/08/28 06:06:00;;;;;;;0.4;0.4;;;;;;;15.3;100.0;101790;;;;
2022/08/28 06:07:00;;;;;;;0.4;0.4;;;;;;;15.3;100.0;101790;;;;
2022/08/28 06:08:00;;;;;;;0.4;0.4;;;;;;;15.4;100.0;101790;;;;
2022/08/28 06:09:01;;;;;;;0.4;0.4;;;;;;;15.4;100.0;101790;;;;
2022/08/28 06:10:00;;;;;;;0.4;0.4;;;;;;;15.5;100.0;101790;;;;
2022/08/28 06:11:01;;;;;;;0.4;0.4;;;;;;;15.5;100.0;101790;;;;
2022/08/28 06:12:01;;;;;;;0.4;0.4;;;;;;;15.5;100.0;101790;;;;
2022/08/28 06:13:01;;;;;;;0.4;0.4;;;;;;;15.5;100.0;101790;;;;
2022/08/28 06:14:01;;;;;;;0.4;0.4;;;;;;;15.5;100.0;101790;;;;
2022/08/28 06:15:00;;;;;;;0.4;0.4;;;;;;;15.5;100.0;101790;;;;
2022/08/28 06:16:00;;;;;;;0.4;0.4;;;;;;;15.5;100.0;101790;;;;
2022/08/28 06:17:00;;;;;;;0.4;0.4;;;;;;;15.5;100.0;101790;;;;
2022/08/28 06:18:00;;;;;;;0.4;0.4;;;;;;;15.4;100.0;101800;;;;
2022/08/28 06:19:00;;;;;;;0.4;0.4;;;;;;;15.4;100.0;101800;;;;
2022/08/28 06:20:00;;;;;;;0.4;0.4;;;;;;;15.5;100.0;101790;;;;
2022/08/28 06:21:01;;;;;;;0.4;0.4;;;;;;;15.5;100.0;101790;;;;
2022/08/28 06:22:08;;;;;;;0.4;0.4;;;;;;;15.5;100.0;101800;;;;
2022/08/28 06:23:00;;;;;;;0.4;0.4;;;;;;;15.5;100.0;101800;;;;
2022/08/28 06:24:00;;;;;;;0.4;0.4;;;;;;;15.6;100.0;101800;;;;
2022/08/28 06:25:00;;;;;;;0.4;0.4;;;;;;;15.6;100.0;101800;;;;
2022/08/28 06:26:00;;;;;;;0.4;0.4;;;;;;;15.6;100.0;101800;;;;